Time;durP1;ratioP1;P1;durP2;ratioP2;P2;SDS_P1;SDS_P2;PMS_P1;PMS_P2;Temp;Humidity;BMP_temperature;BMP_pressure;BME280_temperature;BME280_humidity;BME280_pressure;Samples;Min_cycle;Max_cycle;Signal;HPM_P1;HPM_P2
2022/07/16 00:03:57;;;;;;;4.40;1.30;;;;;;;12.39;100.00;99077.59;5079705;28;20326;-93
2022/07/16 00:06:25;;;;;;;5.65;1.60;;;;;;;12.50;100.00;99078.34;5070997;28;20417;-92
2022/07/16 00:15:44;;;;;;;6.85;1.70;;;;;;;12.27;100.00;99076.81;5066704;28;20179;-93
2022/07/16 00:21:02;;;;;;;6.90;1.50;;;;;;;12.11;100.00;99090.97;5066032;28;20040;-93
2022/07/16 00:23:59;;;;;;;6.55;1.58;;;;;;;12.02;100.00;99072.75;5068379;28;20032;-93
2022/07/16 00:26:42;;;;;;;7.20;1.50;;;;;;;12.06;100.00;99082.28;5065747;28;20032;-94
2022/07/16 00:29:21;;;;;;;6.25;1.65;;;;;;;12.06;100.00;99083.16;5069590;28;20036;-94
2022/07/16 00:32:10;;;;;;;6.03;1.70;;;;;;;12.21;100.00;99095.22;5064159;28;20040;-94
2022/07/16 00:34:47;;;;;;;5.25;1.30;;;;;;;12.03;100.00;99082.34;5064748;28;20036;-94
2022/07/16 00:37:24;;;;;;;4.38;1.20;;;;;;;11.99;100.00;99083.25;5066650;28;20661;-93
2022/07/16 00:40:21;;;;;;;6.32;1.65;;;;;;;12.10;100.00;99087.47;5065868;28;20040;-93
2022/07/16 00:42:59;;;;;;;5.43;1.50;;;;;;;12.06;100.00;99080.53;5065861;28;20057;-93
2022/07/16 00:45:39;;;;;;;4.85;1.30;;;;;;;12.03;100.00;99092.78;5062766;28;20033;-93
2022/07/16 00:48:19;;;;;;;5.80;1.42;;;;;;;12.25;100.00;99093.44;5068137;28;20036;-93
2022/07/16 00:50:49;;;;;;;6.55;1.40;;;;;;;12.11;100.00;99083.13;5069329;28;20040;-93
2022/07/16 00:53:26;;;;;;;8.30;2.00;;;;;;;11.97;100.00;99083.25;5067474;28;20025;-92
2022/07/16 00:55:55;;;;;;;4.90;1.38;;;;;;;12.44;100.00;99076.66;5063556;28;20067;-93
2022/07/16 00:58:33;;;;;;;5.65;1.45;;;;;;;11.90;100.00;99079.78;5069602;28;20036;-93
2022/07/16 01:01:20;;;;;;;7.18;1.80;;;;;;;11.86;100.00;99079.84;5065888;28;20127;-92
2022/07/16 01:03:54;;;;;;;5.78;1.60;;;;;;;11.77;100.00;99096.44;5065479;28;20041;-94
2022/07/16 01:06:28;;;;;;;7.97;1.70;;;;;;;11.75;100.00;99088.63;5066408;28;20485;-90
2022/07/16 01:09:04;;;;;;;5.85;1.63;;;;;;;11.73;100.00;99093.03;5062486;28;20081;-92
2022/07/16 01:14:30;;;;;;;;;;;;;;;11.83;100.00;99101.66;5066872;28;20450;-93
2022/07/16 01:17:04;;;;;;;6.68;1.80;;;;;;;11.73;100.00;99095.63;5062312;28;20381;-92
2022/07/16 01:19:33;;;;;;;6.95;2.20;;;;;;;11.79;100.00;99089.47;5067083;28;20052;-93
2022/07/16 01:22:05;;;;;;;6.95;1.88;;;;;;;11.83;100.00;99095.53;5067647;28;20491;-92
2022/07/16 01:24:32;;;;;;;6.85;1.90;;;;;;;11.73;100.00;99095.63;5066461;28;20107;-92
2022/07/16 01:27:17;;;;;;;7.57;2.00;;;;;;;11.76;100.00;99099.94;5064719;28;20037;-93
2022/07/16 01:30:13;;;;;;;7.05;2.28;;;;;;;11.64;100.00;99092.22;5083813;28;20115;-92
2022/07/16 01:32:42;;;;;;;6.80;1.83;;;;;;;11.67;100.00;99086.97;5065679;28;20044;-92
2022/07/16 01:35:17;;;;;;;9.70;2.20;;;;;;;11.67;100.00;99086.97;5067581;28;20055;-92
2022/07/16 01:38:05;;;;;;;6.32;1.95;;;;;;;11.74;100.00;99092.13;5064117;28;20032;-93
2022/07/16 01:40:35;;;;;;;7.60;2.08;;;;;;;11.70;100.00;99100.84;5065717;28;20051;-93
2022/07/16 01:43:43;;;;;;;7.25;2.22;;;;;;;11.67;100.00;99092.19;5064156;28;20039;-93
2022/07/16 01:46:20;;;;;;;7.45;1.90;;;;;;;11.62;100.00;99102.66;5057031;28;20045;-94
2022/07/16 01:48:54;;;;;;;8.80;1.98;;;;;;;11.59;100.00;99102.69;5064964;28;20020;-93
2022/07/16 01:51:32;;;;;;;8.07;2.25;;;;;;;11.63;100.00;99107.00;5062506;28;20092;-92
2022/07/16 01:54:03;;;;;;;6.80;2.03;;;;;;;11.53;100.00;99105.38;5061838;28;20039;-92
2022/07/16 01:56:39;;;;;;;8.98;2.70;;;;;;;11.50;100.00;99113.22;5064823;28;20049;-93
2022/07/16 01:59:29;;;;;;;9.07;2.10;;;;;;;11.44;100.00;99106.31;5067480;28;20027;-92
2022/07/16 02:02:00;;;;;;;6.40;2.05;;;;;;;11.55;100.00;99106.19;5054775;28;20139;-93
2022/07/16 02:04:38;;;;;;;7.65;2.35;;;;;;;11.51;100.00;99100.16;5064017;28;20025;-92
2022/07/16 02:07:24;;;;;;;7.68;2.00;;;;;;;11.50;100.00;99108.00;5062292;28;20037;-92
2022/07/16 02:09:55;;;;;;;7.72;2.15;;;;;;;11.49;100.00;99104.50;5067928;28;20024;-92
2022/07/16 02:12:43;;;;;;;6.10;2.10;;;;;;;11.52;100.00;99107.09;5060329;28;20027;-92
2022/07/16 02:15:18;;;;;;;6.45;1.95;;;;;;;11.58;100.00;99109.66;5065113;28;20033;-93
2022/07/16 02:17:47;;;;;;;7.00;2.10;;;;;;;11.56;100.00;99121.88;5069129;28;20496;-93
2022/07/16 02:20:30;;;;;;;6.30;2.15;;;;;;;11.47;100.00;99113.22;5063686;28;20074;-92
2022/07/16 02:22:56;;;;;;;;;;;;;;;11.57;100.00;99122.75;5064521;28;20116;-93
2022/07/16 02:25:33;;;;;;;7.35;2.05;;;;;;;11.54;100.00;99117.56;5066144;28;19920;-92
2022/07/16 02:28:28;;;;;;;6.20;2.00;;;;;;;11.57;100.00;99117.53;5063490;28;20028;-92
2022/07/16 02:30:54;;;;;;;6.47;1.92;;;;;;;11.57;100.00;99109.69;5059204;28;20040;-93
2022/07/16 02:33:25;;;;;;;7.35;1.88;;;;;;;11.64;100.00;99105.28;5064531;28;20094;-93
2022/07/16 02:36:05;;;;;;;6.75;1.55;;;;;;;11.60;100.00;99115.75;5063769;28;21176;-93
2022/07/16 02:38:35;;;;;;;5.93;1.63;;;;;;;11.66;100.00;99119.19;5062294;28;20419;-93
2022/07/16 02:41:34;;;;;;;7.07;1.92;;;;;;;11.61;100.00;99104.41;5063490;28;20028;-91
2022/07/16 02:44:04;;;;;;;7.30;2.10;;;;;;;11.59;100.00;99105.31;5047763;28;20037;-91
2022/07/16 02:46:39;;;;;;;6.32;1.88;;;;;;;11.61;100.00;99111.41;5065253;28;20476;-92
2022/07/16 02:49:18;;;;;;;7.82;2.33;;;;;;;11.80;100.00;99112.09;5065373;28;20810;-91
2022/07/16 02:51:53;;;;;;;7.60;2.00;;;;;;;11.73;100.00;99116.53;5066186;28;20060;-93
2022/07/16 02:54:38;;;;;;;6.05;1.88;;;;;;;12.20;100.00;99113.53;5064863;28;20044;-93
2022/07/16 02:57:21;;;;;;;5.85;1.90;;;;;;;11.69;100.00;99103.47;5067071;28;20035;-93
2022/07/16 03:00:01;;;;;;;6.93;1.80;;;;;;;11.96;100.00;99110.28;5061708;28;20042;-93
2022/07/16 03:02:39;;;;;;;8.63;2.33;;;;;;;11.92;100.00;99117.22;5067275;28;20037;-93
2022/07/16 03:05:32;;;;;;;7.72;2.13;;;;;;;12.59;100.00;99112.22;5066831;28;20044;-92
2022/07/16 03:08:10;;;;;;;6.10;1.93;;;;;;;11.94;100.00;99115.50;5065656;28;20032;-93
2022/07/16 03:10:45;;;;;;;8.38;2.15;;;;;;;11.38;100.00;99114.16;5063752;28;20293;-95
2022/07/16 03:13:17;;;;;;;6.88;1.95;;;;;;;11.45;100.00;99131.53;5066419;28;20028;-92
2022/07/16 03:16:03;;;;;;;8.13;2.00;;;;;;;11.30;100.00;99122.06;5062737;28;20041;-93
2022/07/16 03:18:35;;;;;;;7.43;2.25;;;;;;;11.28;100.00;99129.03;5059488;28;20076;-93
2022/07/16 03:21:06;;;;;;;9.80;2.20;;;;;;;11.48;100.00;99141.94;5060107;28;20017;-93
2022/07/16 03:23:48;;;;;;;9.68;2.60;;;;;;;11.81;100.00;99121.69;5067198;28;20032;-94
2022/07/16 03:26:26;;;;;;;7.07;2.40;;;;;;;11.61;100.00;99122.72;5059812;28;20047;-93
2022/07/16 03:29:02;;;;;;;6.95;2.28;;;;;;;11.69;100.00;99116.56;5068694;28;20025;-94
2022/07/16 03:31:31;;;;;;;8.13;2.22;;;;;;;11.61;100.00;99120.09;5063277;28;20033;-94
2022/07/16 03:34:11;;;;;;;7.38;2.03;;;;;;;11.56;100.00;99100.09;5066540;28;20045;-93
2022/07/16 03:36:59;;;;;;;6.88;2.08;;;;;;;11.89;100.00;99088.50;5063294;28;20099;-94
2022/07/16 03:39:36;;;;;;;7.13;2.10;;;;;;;11.57;100.00;99100.09;5058121;28;20597;-93
2022/07/16 03:42:34;;;;;;;7.53;2.13;;;;;;;11.53;100.00;99103.59;5062684;28;20036;-94
2022/07/16 03:45:29;;;;;;;6.88;2.10;;;;;;;11.52;100.00;99095.78;5070448;28;20035;-94
2022/07/16 03:48:01;;;;;;;7.10;2.03;;;;;;;11.24;100.00;99099.44;5057570;28;20090;-94
2022/07/16 03:50:29;;;;;;;6.90;1.90;;;;;;;11.31;100.00;99088.97;5066382;28;20071;-93
2022/07/16 03:53:17;;;;;;;7.03;1.90;;;;;;;11.22;100.00;99100.34;5065474;28;20128;-94
2022/07/16 03:55:59;;;;;;;7.50;2.20;;;;;;;11.16;100.00;99116.94;5067239;28;20037;-94
2022/07/16 03:59:01;;;;;;;7.53;2.30;;;;;;;11.14;100.00;99105.59;5067518;28;20077;-92
2022/07/16 04:01:30;;;;;;;8.77;1.75;;;;;;;11.19;100.00;99116.00;5064768;28;20020;-94
2022/07/16 04:04:11;;;;;;;6.97;2.25;;;;;;;11.13;100.00;99119.53;5068911;28;20050;-93
2022/07/16 04:06:45;;;;;;;8.27;1.60;;;;;;;11.17;100.00;99113.41;5064216;28;20041;-92
2022/07/16 04:09:27;;;;;;;;;;;;;;;;;;;;;
2022/07/16 04:12:19;;;;;;;8.07;1.98;;;;;;;11.86;100.00;99114.69;5067697;28;20036;-92
2022/07/16 04:17:46;;;;;;;6.43;1.85;;;;;;;11.17;100.00;99104.72;5065930;28;20082;-93
2022/07/16 04:20:11;;;;;;;7.30;1.75;;;;;;;11.24;100.00;99119.47;5069083;28;20027;-94
2022/07/16 04:22:57;;;;;;;7.05;1.95;;;;;;;11.25;100.00;99124.69;5067123;28;20040;-94
2022/07/16 04:25:32;;;;;;;6.75;1.98;;;;;;;11.30;100.00;99113.34;5065030;28;20033;-94
2022/07/16 04:27:57;;;;;;;8.52;2.13;;;;;;;11.23;100.00;99105.56;5066017;28;20032;-94
2022/07/16 04:30:23;;;;;;;6.57;2.03;;;;;;;11.84;100.00;99098.13;5068851;28;20021;-93
2022/07/16 04:32:55;;;;;;;8.60;2.10;;;;;;;11.78;100.00;99083.38;5066401;28;20033;-94
2022/07/16 04:35:21;;;;;;;7.28;2.08;;;;;;;11.75;100.00;99091.25;5065179;28;20033;-93
2022/07/16 04:37:47;;;;;;;6.00;1.90;;;;;;;11.63;100.00;99093.94;5065948;28;20026;-94
2022/07/16 04:40:18;;;;;;;5.88;1.80;;;;;;;11.58;100.00;99101.84;5065995;28;20119;-93
2022/07/16 04:42:45;;;;;;;6.55;2.00;;;;;;;11.64;100.00;99107.91;5065166;28;20109;-93
2022/07/16 04:45:12;;;;;;;6.47;2.00;;;;;;;11.64;100.00;99102.69;5066032;28;20051;-93
2022/07/16 04:47:38;;;;;;;7.05;1.98;;;;;;;11.63;100.00;99100.94;5066201;28;20033;-93
2022/07/16 04:50:05;;;;;;;6.90;1.90;;;;;;;11.66;100.00;99106.13;5064904;28;20025;-93
2022/07/16 04:52:30;;;;;;;8.85;2.40;;;;;;;11.74;100.00;99110.41;5062130;28;20028;-93
2022/07/16 04:54:57;;;;;;;5.95;1.67;;;;;;;11.75;100.00;99113.91;5059929;28;20225;-94
2022/07/16 05:00:56;;;;;;;6.47;2.00;;;;;;;11.73;100.00;99107.81;5067637;28;20064;-93
2022/07/16 05:03:50;;;;;;;7.00;1.92;;;;;;;11.89;100.00;99112.03;5069023;28;20056;-93
2022/07/16 05:06:22;;;;;;;;;;;;;;;11.88;100.00;99120.75;5067211;28;20182;-93
2022/07/16 05:08:47;;;;;;;7.65;1.77;;;;;;;11.88;100.00;99125.97;5070963;28;19919;-94
2022/07/16 05:11:19;;;;;;;8.00;1.80;;;;;;;11.97;100.00;99118.97;5066201;28;20028;-93
2022/07/16 05:14:02;;;;;;;7.38;1.73;;;;;;;12.01;100.00;99111.09;5066580;28;20138;-95
2022/07/16 05:16:45;;;;;;;6.30;1.83;;;;;;;12.16;100.00;99119.66;5063322;28;20055;-94
2022/07/16 05:19:20;;;;;;;6.97;1.70;;;;;;;12.19;100.00;99115.28;5064782;28;20039;-92
2022/07/16 05:21:50;;;;;;;8.95;2.00;;;;;;;12.24;100.00;99123.09;5063960;28;20028;-94
2022/07/16 05:24:19;;;;;;;7.20;1.70;;;;;;;12.35;100.00;99120.38;5063584;28;20186;-93
2022/07/16 05:26:47;;;;;;;7.88;1.52;;;;;;;12.41;100.00;99130.75;5063471;28;20821;-94
2022/07/16 05:29:13;;;;;;;6.78;1.80;;;;;;;12.51;100.00;99132.41;5068912;28;20120;-95
2022/07/16 05:31:51;;;;;;;9.05;1.70;;;;;;;12.45;100.00;99117.59;5064374;28;20158;-94
2022/07/16 05:34:42;;;;;;;6.63;1.98;;;;;;;12.55;100.00;99123.59;5068954;28;20525;-94
2022/07/16 05:37:30;;;;;;;9.13;1.77;;;;;;;12.62;100.00;99132.25;5066167;28;20397;-94
2022/07/16 05:39:58;;;;;;;7.60;1.60;;;;;;;12.71;100.00;99131.31;5082304;28;20123;-93
2022/07/16 05:42:58;;;;;;;6.47;1.70;;;;;;;12.72;100.00;99135.63;5067037;28;20036;-93
2022/07/16 05:45:32;;;;;;;6.80;1.52;;;;;;;12.69;100.00;99127.81;5067112;28;20119;-95
2022/07/16 05:48:05;;;;;;;8.65;1.60;;;;;;;12.59;100.00;99132.28;5069069;28;20033;-93
2022/07/16 05:50:54;;;;;;;5.10;1.55;;;;;;;12.89;100.00;99138.94;5068810;28;20037;-93
2022/07/16 05:53:49;;;;;;;9.18;2.25;;;;;;;12.75;100.00;99131.25;5054591;28;20016;-94
2022/07/16 05:56:21;;;;;;;;;;;;;;;12.85;100.00;99139.84;5065484;28;20137;-94
2022/07/16 05:59:02;;;;;;;6.97;1.70;;;;;;;12.89;100.00;99138.06;5050347;28;19916;-94
2022/07/16 06:01:31;;;;;;;9.85;1.80;;;;;;;12.92;100.00;99135.41;5050453;28;20025;-94
2022/07/16 06:03:57;;;;;;;6.88;1.70;;;;;;;13.13;100.00;99140.34;5051809;28;20547;-93
2022/07/16 06:06:40;;;;;;;6.72;1.92;;;;;;;13.01;100.00;99126.56;5049683;28;20072;-94
2022/07/16 06:09:14;;;;;;;7.03;1.63;;;;;;;12.89;100.00;99128.47;5047247;28;20032;-93
2022/07/16 06:11:49;;;;;;;7.50;1.65;;;;;;;12.97;100.00;99141.44;5054735;28;20033;-96
2022/07/16 06:14:25;;;;;;;7.32;1.90;;;;;;;13.12;100.00;99143.00;5052281;28;20090;-93
2022/07/16 06:17:00;;;;;;;9.77;1.88;;;;;;;13.19;100.00;99128.94;5049686;28;20036;-94
2022/07/16 06:19:39;;;;;;;6.82;1.55;;;;;;;13.27;100.00;99142.78;5054771;28;20143;-95
2022/07/16 06:22:10;;;;;;;5.90;1.80;;;;;;;13.53;100.00;99138.97;5047204;28;20044;-95
2022/07/16 06:24:37;;;;;;;6.85;1.92;;;;;;;13.36;100.00;99139.22;5030751;28;20090;-95
2022/07/16 06:27:03;;;;;;;8.00;1.95;;;;;;;13.65;100.00;99159.75;5028621;28;20525;-96
2022/07/16 06:29:30;;;;;;;8.35;1.85;;;;;;;13.64;100.00;99149.28;5043043;28;20037;-95
2022/07/16 06:31:55;;;;;;;7.10;2.13;;;;;;;13.78;100.00;99133.34;5024782;28;20091;-95
2022/07/16 06:34:21;;;;;;;9.45;2.20;;;;;;;14.19;100.00;99146.66;5029782;28;20037;-94
2022/07/16 06:37:03;;;;;;;10.80;3.10;;;;;;;13.98;100.00;99135.63;5027277;28;20029;-94
2022/07/16 06:39:32;;;;;;;7.07;1.90;;;;;;;14.11;100.00;99133.66;5031597;28;20119;-93
2022/07/16 06:42:34;;;;;;;7.28;1.83;;;;;;;14.19;100.00;99139.66;5048657;28;20139;-95
2022/07/16 06:45:41;;;;;;;9.32;1.95;;;;;;;14.16;100.00;99131.84;5025329;28;20029;-96
2022/07/16 06:48:10;;;;;;;7.70;1.90;;;;;;;14.29;100.00;99140.34;5028245;28;20068;-94
2022/07/16 06:50:48;;;;;;;8.13;2.20;;;;;;;14.35;100.00;99135.00;5032030;28;20113;-95
2022/07/16 06:53:23;;;;;;;5.63;1.90;;;;;;;14.60;100.00;99139.75;5029705;28;20025;-95
2022/07/16 06:56:10;;;;;;;;;;;;;;;;;;;;;
2022/07/16 07:01:44;;;;;;;7.13;2.00;;;;;;;14.75;100.00;99151.75;5055275;28;20123;-94
2022/07/16 07:04:30;;;;;;;16.53;1.97;;;;;;;14.88;100.00;99155.00;5064054;28;20021;-93
2022/07/16 07:07:16;;;;;;;6.35;1.52;;;;;;;14.87;100.00;99158.56;5081430;28;20281;-93
2022/07/16 07:09:44;;;;;;;6.72;1.80;;;;;;;14.98;100.00;99162.66;5065100;28;20073;-94
2022/07/16 07:12:15;;;;;;;6.43;1.60;;;;;;;14.91;100.00;99158.44;5066412;28;21614;-94
2022/07/16 07:15:28;;;;;;;6.55;1.73;;;;;;;15.67;100.00;99164.69;5069523;28;20060;-95
2022/07/16 07:18:32;;;;;;;6.88;1.65;;;;;;;16.00;100.00;99157.78;5063551;28;20595;-95
2022/07/16 07:21:06;;;;;;;5.85;1.90;;;;;;;16.33;100.00;99160.47;5076470;28;20028;-94
2022/07/16 07:23:33;;;;;;;6.45;1.60;;;;;;;15.61;100.00;99160.44;5071159;28;20032;-93
2022/07/16 07:25:59;;;;;;;5.40;1.50;;;;;;;15.37;100.00;99161.84;5068732;28;20048;-92
2022/07/16 07:28:28;;;;;;;6.68;1.67;;;;;;;15.19;100.00;99168.38;5081415;28;21454;-92
2022/07/16 07:31:01;;;;;;;5.78;1.30;;;;;;;15.89;100.00;99153.69;5063428;28;21240;-92
2022/07/16 07:33:27;;;;;;;5.70;1.52;;;;;;;16.16;100.00;99162.69;5079945;28;20041;-92
2022/07/16 07:36:26;;;;;;;6.15;1.50;;;;;;;16.30;100.00;99167.59;5069684;28;20551;-95
2022/07/16 07:39:09;;;;;;;8.50;1.63;;;;;;;16.44;100.00;99175.13;5071200;28;20059;-95
2022/07/16 07:42:12;;;;;;;6.70;1.70;;;;;;;16.40;100.00;99179.59;5072445;28;20040;-96
2022/07/16 07:45:07;;;;;;;6.55;1.65;;;;;;;16.36;100.00;99178.78;5072407;28;20038;-96
2022/07/16 07:48:13;;;;;;;7.03;1.60;;;;;;;16.44;100.00;99180.41;5072381;28;20036;-96
2022/07/16 07:50:39;;;;;;;6.15;1.60;;;;;;;16.61;100.00;99187.84;5067809;28;20048;-95
2022/07/16 07:53:44;;;;;;;5.80;1.55;;;;;;;16.66;100.00;99188.56;5071361;28;20033;-95
2022/07/16 07:56:10;;;;;;;5.07;1.45;;;;;;;16.61;100.00;99180.78;5084604;28;20048;-95
2022/07/16 07:58:39;;;;;;;6.55;1.48;;;;;;;16.73;100.00;99184.88;5068480;28;20067;-96
2022/07/16 08:01:19;;;;;;;6.53;1.48;;;;;;;16.87;100.00;99184.50;5066857;28;20028;-95
2022/07/16 08:03:44;;;;;;;5.85;1.50;;;;;;;16.95;100.00;99185.19;5072414;28;20040;-95
2022/07/16 08:06:17;;;;;;;6.25;1.88;;;;;;;16.91;100.00;99178.28;5068655;28;20390;-95
2022/07/16 08:12:46;;;;;;;4.88;1.50;;;;;;;17.05;100.00;99176.09;5067811;28;20047;-96
2022/07/16 08:15:12;;;;;;;5.27;1.50;;;;;;;17.08;100.00;99190.06;5067583;28;20068;-95
2022/07/16 08:17:39;;;;;;;8.20;1.65;;;;;;;17.57;100.00;99191.25;5071783;28;20131;-96
2022/07/16 08:20:06;;;;;;;5.85;1.70;;;;;;;17.75;100.00;99187.19;5069958;28;20714;-96
2022/07/16 08:22:32;;;;;;;5.97;1.60;;;;;;;17.58;100.00;99191.22;5071465;28;20036;-96
2022/07/16 08:32:01;;;;;;;7.07;1.75;;;;;;;17.06;100.00;99196.28;5062828;28;20097;-96
2022/07/16 08:34:54;;;;;;;5.65;1.60;;;;;;;17.37;100.00;99182.19;5069898;28;20036;-96
2022/07/16 08:38:03;;;;;;;5.82;1.48;;;;;;;16.96;100.00;99194.78;5067720;28;20127;-96
2022/07/16 08:40:47;;;;;;;5.68;1.50;;;;;;;17.02;100.00;99197.25;5070606;28;20046;-94
2022/07/16 08:43:48;;;;;;;6.93;2.00;;;;;;;16.60;100.00;99199.25;5068322;28;20044;-95
2022/07/16 08:46:36;;;;;;;6.55;1.70;;;;;;;16.76;100.00;99204.97;5063543;28;20085;-95
2022/07/16 08:50:03;;;;;;;;;;;;;;;;;;;;;
2022/07/16 08:53:00;;;;;;;8.00;1.90;;;;;;;16.47;100.00;99214.53;5062454;28;20048;-95
2022/07/16 08:56:57;;;;;;;;;;;;;;;;;;;;;
2022/07/16 09:00:07;;;;;;;6.78;2.08;;;;;;;17.17;100.00;99214.38;5068641;28;20036;-95
2022/07/16 09:02:35;;;;;;;6.32;2.13;;;;;;;17.24;100.00;99212.44;5064270;28;20037;-94
2022/07/16 09:05:00;;;;;;;6.40;2.00;;;;;;;17.31;100.00;99219.25;5069060;28;20020;-95
2022/07/16 09:07:27;;;;;;;7.78;2.00;;;;;;;17.32;100.00;99231.53;5067235;28;20473;-95
2022/07/16 09:10:25;;;;;;;6.72;2.05;;;;;;;17.26;100.00;99223.81;5069876;28;20111;-95
2022/07/16 09:12:51;;;;;;;8.77;1.75;;;;;;;17.48;100.00;99212.63;5070736;28;20036;-96
2022/07/16 09:15:35;;;;;;;10.13;2.00;;;;;;;17.48;100.00;99215.25;5069883;28;20025;-95
2022/07/16 09:18:35;;;;;;;7.15;1.70;;;;;;;17.13;100.00;99217.16;5069066;28;20074;-95
2022/07/16 09:21:04;;;;;;;6.03;1.60;;;;;;;17.61;100.00;99219.28;5064824;28;20037;-94
2022/07/16 09:23:35;;;;;;;5.93;1.60;;;;;;;17.58;100.00;99206.19;5066540;28;20025;-96
2022/07/16 09:26:07;;;;;;;6.95;1.80;;;;;;;17.44;100.00;99221.53;5064967;28;20173;-96
2022/07/16 09:28:58;;;;;;;6.45;1.40;;;;;;;17.50;100.00;99213.47;5062111;28;20082;-95
2022/07/16 09:31:41;;;;;;;5.75;1.70;;;;;;;17.52;100.00;99219.53;5065629;28;20800;-95
2022/07/16 09:38:09;;;;;;;5.90;1.70;;;;;;;17.26;100.00;99221.19;5060792;28;20093;-94
2022/07/16 09:40:46;;;;;;;6.78;1.60;;;;;;;17.54;100.00;99223.00;5063809;28;20032;-94
2022/07/16 09:43:15;;;;;;;6.20;1.60;;;;;;;17.57;100.00;99223.75;5063422;28;20476;-94
2022/07/16 09:46:31;;;;;;;6.07;1.60;;;;;;;17.82;100.00;99233.56;5066189;28;20056;-95
2022/07/16 09:52:42;;;;;;;6.90;1.77;;;;;;;17.98;100.00;99220.81;5071205;28;20044;-94
2022/07/16 09:55:41;;;;;;;6.03;1.73;;;;;;;17.89;100.00;99218.41;5070315;28;20032;-95
2022/07/16 09:58:22;;;;;;;7.70;2.30;;;;;;;17.97;100.00;99219.06;5067796;28;20037;-95
2022/07/16 10:01:26;;;;;;;6.35;2.08;;;;;;;17.84;100.00;99217.69;5067267;28;20024;-96
2022/07/16 10:04:20;;;;;;;7.43;2.03;;;;;;;18.03;100.00;99218.84;5066651;28;20155;-94
2022/07/16 10:07:04;;;;;;;7.32;2.00;;;;;;;18.07;100.00;99223.13;5067758;28;20099;-95
2022/07/16 10:09:45;;;;;;;7.97;2.00;;;;;;;18.27;100.00;99218.13;5067781;28;20020;-94
2022/07/16 10:12:31;;;;;;;;;;;;;;;;;;;;;
2022/07/16 10:15:10;;;;;;;6.95;1.80;;;;;;;18.91;100.00;99218.59;5071018;28;20581;-95
2022/07/16 10:17:52;;;;;;;6.75;1.90;;;;;;;19.88;100.00;99224.66;5064736;28;20024;-95
2022/07/16 10:21:26;;;;;;;5.50;1.77;;;;;;;20.14;100.00;99214.81;5068532;28;20041;-96
2022/07/16 10:24:25;;;;;;;6.17;1.70;;;;;;;19.64;100.00;99223.81;5061255;28;20057;-95
2022/07/16 10:27:42;;;;;;;5.95;1.65;;;;;;;20.06;100.00;99215.13;5064378;28;20028;-94
2022/07/16 10:30:45;;;;;;;3.88;1.20;;;;;;;20.15;100.00;99220.97;4995389;28;20034;-94
2022/07/16 10:36:56;;;;;;;4.78;1.30;;;;;;;21.63;100.00;99214.56;5020200;28;20402;-94
2022/07/16 10:40:13;;;;;;;4.80;1.30;;;;;;;20.20;100.00;99227.78;5015654;28;20030;-95
2022/07/16 10:43:24;;;;;;;4.93;1.27;;;;;;;21.43;97.73;99226.03;4995167;28;20029;-94
2022/07/16 10:46:53;;;;;;;4.47;1.15;;;;;;;21.68;93.38;99219.63;5011904;28;20517;-94
2022/07/16 10:49:36;;;;;;;;;;;;;;;;;;;;;
2022/07/16 10:52:21;;;;;;;5.50;1.50;;;;;;;22.86;100.00;99220.88;5011723;28;20044;-95
2022/07/16 10:55:06;;;;;;;6.47;1.85;;;;;;;22.45;92.91;99224.75;5001590;28;20041;-96
2022/07/16 10:58:08;;;;;;;5.40;1.60;;;;;;;22.30;96.76;99212.19;5013350;28;20037;-95
2022/07/16 11:00:50;;;;;;;4.97;1.30;;;;;;;22.83;98.08;99224.56;5000186;28;20545;-95
2022/07/16 11:04:09;;;;;;;6.20;1.30;;;;;;;22.70;96.62;99239.44;5018633;28;20030;-94
2022/07/16 11:06:59;;;;;;;6.05;1.30;;;;;;;21.89;99.19;99234.53;5032658;28;20461;-95
2022/07/16 11:09:34;;;;;;;4.20;1.20;;;;;;;21.80;96.37;99227.88;5066941;28;20037;-94
2022/07/16 11:12:12;;;;;;;4.25;1.30;;;;;;;22.28;94.34;99211.41;5067831;28;20067;-95
2022/07/16 11:14:42;;;;;;;5.22;1.40;;;;;;;22.65;92.28;99228.19;5065272;28;20125;-93
2022/07/16 11:17:09;;;;;;;4.20;1.20;;;;;;;21.56;99.00;99224.59;5067494;28;20028;-94
2022/07/16 11:19:42;;;;;;;5.45;1.60;;;;;;;22.45;95.06;99222.09;5059228;28;20724;-96
2022/07/16 11:22:13;;;;;;;6.03;1.40;;;;;;;22.94;95.47;99228.47;5067564;28;20078;-94
2022/07/16 11:24:48;;;;;;;5.38;1.30;;;;;;;22.63;90.94;99225.59;5064898;28;20036;-95
2022/07/16 11:27:15;;;;;;;4.78;1.42;;;;;;;23.31;96.90;99227.41;5064565;28;20033;-94
2022/07/16 11:29:41;;;;;;;6.10;1.40;;;;;;;23.82;91.14;99219.25;5066974;28;20028;-94
2022/07/16 11:32:12;;;;;;;5.47;1.55;;;;;;;24.65;88.44;99232.34;5065950;28;20119;-93
2022/07/16 11:34:37;;;;;;;5.93;1.42;;;;;;;24.12;82.67;99229.16;5053288;28;20058;-91
2022/07/16 11:37:03;;;;;;;5.78;1.40;;;;;;;23.06;86.75;99227.84;5055423;28;20020;-90
2022/07/16 11:39:29;;;;;;;5.68;1.70;;;;;;;23.13;84.63;99226.59;5051975;28;20044;-92
2022/07/16 11:41:56;;;;;;;6.20;1.65;;;;;;;23.04;84.31;99226.19;5056531;28;20028;-91
2022/07/16 11:44:31;;;;;;;5.45;1.50;;;;;;;22.80;89.11;99232.72;5056030;28;20032;-91
2022/07/16 11:46:59;;;;;;;4.60;1.40;;;;;;;24.47;96.80;99228.91;5049414;28;20167;-90
2022/07/16 11:49:26;;;;;;;4.65;1.40;;;;;;;23.67;94.16;99230.78;5053101;28;20118;-90
2022/07/16 11:51:54;;;;;;;4.65;1.48;;;;;;;23.88;86.98;99215.44;5049266;28;20127;-90
2022/07/16 11:54:20;;;;;;;5.38;1.45;;;;;;;23.93;78.12;99223.19;5055581;28;20046;-90
2022/07/16 11:56:47;;;;;;;6.43;1.55;;;;;;;24.00;82.96;99225.38;5048541;28;20056;-91
2022/07/16 11:59:23;;;;;;;7.93;1.75;;;;;;;23.98;84.99;99221.97;5051432;28;20085;-94
2022/07/16 12:02:05;;;;;;;4.72;1.30;;;;;;;24.46;81.30;99229.84;5057669;28;20056;-94
2022/07/16 12:04:46;;;;;;;6.13;1.60;;;;;;;23.62;80.31;99231.03;5061868;28;20062;-94
2022/07/16 12:07:25;;;;;;;5.70;1.42;;;;;;;23.79;76.74;99227.44;5070551;28;20043;-95
2022/07/16 12:09:52;;;;;;;5.15;1.30;;;;;;;23.75;82.16;99223.22;5082391;28;20671;-94
2022/07/16 12:12:20;;;;;;;5.95;1.63;;;;;;;24.19;76.95;99225.19;5063908;28;20054;-94
2022/07/16 12:14:52;;;;;;;4.93;1.60;;;;;;;24.03;80.37;99222.53;5067097;28;20028;-94
2022/07/16 12:17:31;;;;;;;6.40;1.70;;;;;;;24.20;75.53;99216.25;5067296;28;20042;-94
2022/07/16 12:20:08;;;;;;;7.63;1.55;;;;;;;24.79;84.10;99218.16;5060010;28;20033;-95
2022/07/16 12:22:54;;;;;;;5.65;1.50;;;;;;;25.26;78.74;99216.22;5070240;28;20027;-93
2022/07/16 12:25:28;;;;;;;5.38;1.63;;;;;;;24.43;74.96;99226.53;5069651;28;20054;-93
2022/07/16 12:28:11;;;;;;;5.90;1.70;;;;;;;24.26;78.68;99214.16;5065209;28;21665;-92
2022/07/16 12:30:49;;;;;;;4.97;1.45;;;;;;;25.07;78.85;99219.16;5064487;28;20028;-95
2022/07/16 12:33:24;;;;;;;6.63;1.40;;;;;;;25.29;79.82;99220.47;5071197;28;20037;-92
2022/07/16 12:36:10;;;;;;;6.28;1.60;;;;;;;24.47;74.48;99217.41;5064449;28;20112;-93
2022/07/16 12:38:38;;;;;;;7.60;1.50;;;;;;;24.67;74.54;99225.09;5069358;28;20052;-94
2022/07/16 12:41:11;;;;;;;5.38;1.60;;;;;;;25.06;78.50;99220.09;5067045;28;20056;-93
2022/07/16 12:43:39;;;;;;;5.47;1.45;;;;;;;25.02;75.56;99214.09;5061678;28;20101;-92
2022/07/16 12:46:06;;;;;;;5.38;1.70;;;;;;;24.70;74.01;99208.91;5064615;28;20110;-94
2022/07/16 12:48:44;;;;;;;5.28;1.73;;;;;;;24.44;71.07;99215.78;5080393;28;20067;-95
2022/07/16 12:51:12;;;;;;;6.53;1.70;;;;;;;25.34;78.44;99210.41;5064355;28;20047;-93
2022/07/16 12:53:38;;;;;;;5.60;1.58;;;;;;;25.23;67.27;99211.03;5067230;28;20115;-94
2022/07/16 12:58:52;;;;;;;6.30;1.90;;;;;;;25.33;71.48;99214.00;5060351;28;20443;-93
2022/07/16 13:01:19;;;;;;;7.50;2.22;;;;;;;24.92;63.66;99212.94;5059965;28;20047;-93
2022/07/16 13:03:46;;;;;;;7.35;2.28;;;;;;;25.31;67.37;99210.56;5063357;28;20025;-93
2022/07/16 13:06:26;;;;;;;6.70;2.20;;;;;;;24.80;67.98;99198.56;5067044;28;20048;-93
2022/07/16 13:09:02;;;;;;;6.47;1.90;;;;;;;25.67;74.79;99203.88;5064295;28;20484;-93
2022/07/16 13:11:28;;;;;;;6.30;2.20;;;;;;;25.76;74.42;99192.56;5065350;28;20035;-94
2022/07/16 13:13:54;;;;;;;7.50;2.20;;;;;;;24.77;71.92;99205.88;5065947;28;20024;-94
2022/07/16 13:16:21;;;;;;;6.50;2.40;;;;;;;25.00;71.70;99201.81;5067544;28;20695;-95
2022/07/16 13:18:48;;;;;;;5.85;2.10;;;;;;;25.29;68.34;99188.44;5064125;28;20033;-94
2022/07/16 13:21:15;;;;;;;6.47;2.50;;;;;;;24.33;75.95;99196.91;5063426;28;20114;-94